sensor_id;sensor_type;location;lat;lon;timestamp;P1;durP1;ratioP1;P2;durP2;ratioP2
17173;SDS011;8702;48.130;-1.696;2024-01-15T00:01:46;41.03;;;34.55;;
17173;SDS011;8702;48.130;-1.696;2024-01-15T00:04:13;44.65;;;35.75;;
17173;SDS011;8702;48.130;-1.696;2024-01-15T00:06:40;40.38;;;34.08;;
17173;SDS011;8702;48.130;-1.696;2024-01-15T00:09:07;42.25;;;33.90;;
17173;SDS011;8702;48.130;-1.696;2024-01-15T00:11:34;41.50;;;34.13;;
17173;SDS011;8702;48.130;-1.696;2024-01-15T00:14:00;41.90;;;34.30;;
17173;SDS011;8702;48.130;-1.696;2024-01-15T00:16:28;40.80;;;34.45;;
17173;SDS011;8702;48.130;-1.696;2024-01-15T00:18:56;41.85;;;34.10;;
17173;SDS011;8702;48.130;-1.696;2024-01-15T00:21:23;41.10;;;34.42;;
17173;SDS011;8702;48.130;-1.696;2024-01-15T00:23:50;41.65;;;34.70;;
17173;SDS011;8702;48.130;-1.696;2024-01-15T00:26:16;42.97;;;35.90;;
17173;SDS011;8702;48.130;-1.696;2024-01-15T00:28:43;42.07;;;35.73;;
17173;SDS011;8702;48.130;-1.696;2024-01-15T00:31:10;41.67;;;35.00;;
17173;SDS011;8702;48.130;-1.696;2024-01-15T00:33:37;42.22;;;34.97;;
17173;SDS011;8702;48.130;-1.696;2024-01-15T00:36:05;42.83;;;34.95;;
17173;SDS011;8702;48.130;-1.696;2024-01-15T00:38:33;41.33;;;33.53;;
17173;SDS011;8702;48.130;-1.696;2024-01-15T00:40:59;42.80;;;34.55;;
17173;SDS011;8702;48.130;-1.696;2024-01-15T00:43:27;41.45;;;34.15;;
17173;SDS011;8702;48.130;-1.696;2024-01-15T00:45:53;42.40;;;34.65;;
17173;SDS011;8702;48.130;-1.696;2024-01-15T00:48:20;43.28;;;35.03;;
17173;SDS011;8702;48.130;-1.696;2024-01-15T00:50:47;39.58;;;33.60;;
17173;SDS011;8702;48.130;-1.696;2024-01-15T00:53:15;41.53;;;33.80;;
17173;SDS011;8702;48.130;-1.696;2024-01-15T00:55:42;42.35;;;34.10;;
17173;SDS011;8702;48.130;-1.696;2024-01-15T00:58:09;43.03;;;34.25;;
17173;SDS011;8702;48.130;-1.696;2024-01-15T01:00:36;39.17;;;32.83;;
17173;SDS011;8702;48.130;-1.696;2024-01-15T01:03:02;41.77;;;33.27;;
17173;SDS011;8702;48.130;-1.696;2024-01-15T01:05:29;40.42;;;33.42;;
17173;SDS011;8702;48.130;-1.696;2024-01-15T01:07:56;41.00;;;33.00;;
17173;SDS011;8702;48.130;-1.696;2024-01-15T01:10:24;43.17;;;33.22;;
17173;SDS011;8702;48.130;-1.696;2024-01-15T01:12:51;41.00;;;32.67;;
17173;SDS011;8702;48.130;-1.696;2024-01-15T01:15:18;40.47;;;33.22;;
17173;SDS011;8702;48.130;-1.696;2024-01-15T01:17:45;40.22;;;33.25;;
17173;SDS011;8702;48.130;-1.696;2024-01-15T01:20:12;40.67;;;33.22;;
17173;SDS011;8702;48.130;-1.696;2024-01-15T01:22:40;38.35;;;32.65;;
17173;SDS011;8702;48.130;-1.696;2024-01-15T01:25:07;40.55;;;33.63;;
17173;SDS011;8702;48.130;-1.696;2024-01-15T01:27:36;41.20;;;34.03;;
17173;SDS011;8702;48.130;-1.696;2024-01-15T01:30:03;41.00;;;31.60;;
17173;SDS011;8702;48.130;-1.696;2024-01-15T01:32:31;38.42;;;32.53;;
17173;SDS011;8702;48.130;-1.696;2024-01-15T01:34:57;37.70;;;31.38;;
17173;SDS011;8702;48.130;-1.696;2024-01-15T01:37:24;36.78;;;31.15;;
17173;SDS011;8702;48.130;-1.696;2024-01-15T01:39:51;36.45;;;31.48;;
17173;SDS011;8702;48.130;-1.696;2024-01-15T01:42:18;37.00;;;31.00;;
17173;SDS011;8702;48.130;-1.696;2024-01-15T01:44:46;37.75;;;30.77;;
17173;SDS011;8702;48.130;-1.696;2024-01-15T01:47:13;36.55;;;31.13;;
17173;SDS011;8702;48.130;-1.696;2024-01-15T01:49:41;35.13;;;30.00;;
17173;SDS011;8702;48.130;-1.696;2024-01-15T01:52:09;38.70;;;31.60;;
17173;SDS011;8702;48.130;-1.696;2024-01-15T01:54:36;33.97;;;29.55;;
17173;SDS011;8702;48.130;-1.696;2024-01-15T01:57:04;34.33;;;29.90;;
17173;SDS011;8702;48.130;-1.696;2024-01-15T01:59:32;34.03;;;28.35;;
17173;SDS011;8702;48.130;-1.696;2024-01-15T02:02:02;34.78;;;28.75;;
17173;SDS011;8702;48.130;-1.696;2024-01-15T02:04:29;36.10;;;28.97;;
17173;SDS011;8702;48.130;-1.696;2024-01-15T02:06:58;33.40;;;29.13;;
17173;SDS011;8702;48.130;-1.696;2024-01-15T02:09:25;34.35;;;30.05;;
17173;SDS011;8702;48.130;-1.696;2024-01-15T02:11:52;35.75;;;30.15;;
17173;SDS011;8702;48.130;-1.696;2024-01-15T02:14:19;36.05;;;29.90;;
17173;SDS011;8702;48.130;-1.696;2024-01-15T02:16:46;37.90;;;32.05;;
17173;SDS011;8702;48.130;-1.696;2024-01-15T02:19:16;37.00;;;30.50;;
17173;SDS011;8702;48.130;-1.696;2024-01-15T02:21:43;38.63;;;31.35;;
17173;SDS011;8702;48.130;-1.696;2024-01-15T02:24:11;37.42;;;30.33;;
17173;SDS011;8702;48.130;-1.696;2024-01-15T02:26:38;37.67;;;29.42;;
17173;SDS011;8702;48.130;-1.696;2024-01-15T02:29:05;33.17;;;29.20;;
17173;SDS011;8702;48.130;-1.696;2024-01-15T02:31:34;35.13;;;30.35;;
17173;SDS011;8702;48.130;-1.696;2024-01-15T02:34:02;36.28;;;30.77;;
17173;SDS011;8702;48.130;-1.696;2024-01-15T02:36:29;37.17;;;29.40;;
17173;SDS011;8702;48.130;-1.696;2024-01-15T02:38:56;36.10;;;29.85;;
17173;SDS011;8702;48.130;-1.696;2024-01-15T02:41:24;37.25;;;29.02;;
17173;SDS011;8702;48.130;-1.696;2024-01-15T02:43:51;32.55;;;29.00;;
17173;SDS011;8702;48.130;-1.696;2024-01-15T02:46:18;34.80;;;28.43;;
17173;SDS011;8702;48.130;-1.696;2024-01-15T02:48:45;32.30;;;28.20;;
17173;SDS011;8702;48.130;-1.696;2024-01-15T02:51:11;33.10;;;28.20;;
17173;SDS011;8702;48.130;-1.696;2024-01-15T02:53:38;32.17;;;27.70;;
17173;SDS011;8702;48.130;-1.696;2024-01-15T02:56:06;30.85;;;26.77;;
17173;SDS011;8702;48.130;-1.696;2024-01-15T02:58:34;31.77;;;27.10;;
17173;SDS011;8702;48.130;-1.696;2024-01-15T03:01:01;32.47;;;27.67;;
17173;SDS011;8702;48.130;-1.696;2024-01-15T03:03:28;35.05;;;28.02;;
17173;SDS011;8702;48.130;-1.696;2024-01-15T03:05:55;32.17;;;26.48;;
17173;SDS011;8702;48.130;-1.696;2024-01-15T03:08:22;31.80;;;26.92;;
17173;SDS011;8702;48.130;-1.696;2024-01-15T03:10:49;32.20;;;26.58;;
17173;SDS011;8702;48.130;-1.696;2024-01-15T03:13:15;32.83;;;27.23;;
17173;SDS011;8702;48.130;-1.696;2024-01-15T03:15:45;30.63;;;25.95;;
17173;SDS011;8702;48.130;-1.696;2024-01-15T03:18:12;32.35;;;26.17;;
17173;SDS011;8702;48.130;-1.696;2024-01-15T03:20:39;28.73;;;25.02;;
17173;SDS011;8702;48.130;-1.696;2024-01-15T03:23:06;29.95;;;26.30;;
17173;SDS011;8702;48.130;-1.696;2024-01-15T03:25:32;29.92;;;25.73;;
17173;SDS011;8702;48.130;-1.696;2024-01-15T03:27:59;29.02;;;24.83;;
17173;SDS011;8702;48.130;-1.696;2024-01-15T03:30:26;31.23;;;25.65;;
17173;SDS011;8702;48.130;-1.696;2024-01-15T03:32:54;29.57;;;25.17;;
17173;SDS011;8702;48.130;-1.696;2024-01-15T03:35:21;26.85;;;23.73;;
17173;SDS011;8702;48.130;-1.696;2024-01-15T03:37:48;26.95;;;23.95;;
17173;SDS011;8702;48.130;-1.696;2024-01-15T03:40:15;27.45;;;23.48;;
17173;SDS011;8702;48.130;-1.696;2024-01-15T03:42:42;28.17;;;23.75;;
17173;SDS011;8702;48.130;-1.696;2024-01-15T03:45:09;27.52;;;23.63;;
17173;SDS011;8702;48.130;-1.696;2024-01-15T03:47:35;26.15;;;23.35;;
17173;SDS011;8702;48.130;-1.696;2024-01-15T03:50:04;27.57;;;23.57;;
17173;SDS011;8702;48.130;-1.696;2024-01-15T03:52:31;26.92;;;22.65;;
17173;SDS011;8702;48.130;-1.696;2024-01-15T03:54:58;25.45;;;22.50;;
17173;SDS011;8702;48.130;-1.696;2024-01-15T03:57:25;27.25;;;22.88;;
17173;SDS011;8702;48.130;-1.696;2024-01-15T03:59:52;24.48;;;21.08;;
17173;SDS011;8702;48.130;-1.696;2024-01-15T04:02:18;23.33;;;19.95;;
17173;SDS011;8702;48.130;-1.696;2024-01-15T04:04:47;23.00;;;19.45;;
17173;SDS011;8702;48.130;-1.696;2024-01-15T04:07:15;20.92;;;18.73;;
17173;SDS011;8702;48.130;-1.696;2024-01-15T04:09:42;23.70;;;20.83;;
17173;SDS011;8702;48.130;-1.696;2024-01-15T04:12:09;23.23;;;19.73;;
17173;SDS011;8702;48.130;-1.696;2024-01-15T04:14:36;21.38;;;19.08;;
17173;SDS011;8702;48.130;-1.696;2024-01-15T04:17:02;20.88;;;18.60;;
17173;SDS011;8702;48.130;-1.696;2024-01-15T04:19:29;20.63;;;18.35;;
17173;SDS011;8702;48.130;-1.696;2024-01-15T04:21:56;21.08;;;18.80;;
17173;SDS011;8702;48.130;-1.696;2024-01-15T04:24:24;22.07;;;19.77;;
17173;SDS011;8702;48.130;-1.696;2024-01-15T04:26:51;20.27;;;18.15;;
17173;SDS011;8702;48.130;-1.696;2024-01-15T04:29:18;19.00;;;17.00;;
17173;SDS011;8702;48.130;-1.696;2024-01-15T04:31:45;19.38;;;17.23;;
17173;SDS011;8702;48.130;-1.696;2024-01-15T04:34:12;18.70;;;16.70;;
17173;SDS011;8702;48.130;-1.696;2024-01-15T04:36:39;18.67;;;16.67;;
17173;SDS011;8702;48.130;-1.696;2024-01-15T04:39:06;18.30;;;16.38;;
17173;SDS011;8702;48.130;-1.696;2024-01-15T04:41:34;19.43;;;17.40;;
17173;SDS011;8702;48.130;-1.696;2024-01-15T04:44:01;19.15;;;17.10;;
17173;SDS011;8702;48.130;-1.696;2024-01-15T04:46:28;19.67;;;17.52;;
17173;SDS011;8702;48.130;-1.696;2024-01-15T04:48:55;19.02;;;16.58;;
17173;SDS011;8702;48.130;-1.696;2024-01-15T04:51:22;19.13;;;17.13;;
17173;SDS011;8702;48.130;-1.696;2024-01-15T04:53:48;20.08;;;17.98;;
17173;SDS011;8702;48.130;-1.696;2024-01-15T04:56:15;20.57;;;18.37;;
17173;SDS011;8702;48.130;-1.696;2024-01-15T04:58:43;20.20;;;18.07;;
17173;SDS011;8702;48.130;-1.696;2024-01-15T05:01:10;19.13;;;17.13;;
17173;SDS011;8702;48.130;-1.696;2024-01-15T05:03:37;20.25;;;18.05;;
17173;SDS011;8702;48.130;-1.696;2024-01-15T05:06:04;19.45;;;17.38;;
17173;SDS011;8702;48.130;-1.696;2024-01-15T05:08:31;20.50;;;18.27;;
17173;SDS011;8702;48.130;-1.696;2024-01-15T05:10:58;20.05;;;17.98;;
17173;SDS011;8702;48.130;-1.696;2024-01-15T05:13:25;20.33;;;17.98;;
17173;SDS011;8702;48.130;-1.696;2024-01-15T05:15:53;20.20;;;18.00;;
17173;SDS011;8702;48.130;-1.696;2024-01-15T05:18:19;20.20;;;17.02;;
17173;SDS011;8702;48.130;-1.696;2024-01-15T05:20:47;20.30;;;17.17;;
17173;SDS011;8702;48.130;-1.696;2024-01-15T05:23:13;20.50;;;18.02;;
17173;SDS011;8702;48.130;-1.696;2024-01-15T05:25:40;21.38;;;18.23;;
17173;SDS011;8702;48.130;-1.696;2024-01-15T05:28:07;20.13;;;18.02;;
17173;SDS011;8702;48.130;-1.696;2024-01-15T05:30:34;20.27;;;18.17;;
17173;SDS011;8702;48.130;-1.696;2024-01-15T05:33:02;20.52;;;18.20;;
17173;SDS011;8702;48.130;-1.696;2024-01-15T05:35:29;21.67;;;18.65;;
17173;SDS011;8702;48.130;-1.696;2024-01-15T05:37:58;22.10;;;18.98;;
17173;SDS011;8702;48.130;-1.696;2024-01-15T05:40:25;21.77;;;19.48;;
17173;SDS011;8702;48.130;-1.696;2024-01-15T05:42:52;20.87;;;18.50;;
17173;SDS011;8702;48.130;-1.696;2024-01-15T05:45:19;21.10;;;18.80;;
17173;SDS011;8702;48.130;-1.696;2024-01-15T05:47:45;21.33;;;18.85;;
17173;SDS011;8702;48.130;-1.696;2024-01-15T05:50:14;21.27;;;18.88;;
17173;SDS011;8702;48.130;-1.696;2024-01-15T05:52:41;20.38;;;18.17;;
17173;SDS011;8702;48.130;-1.696;2024-01-15T05:55:07;21.48;;;18.92;;
17173;SDS011;8702;48.130;-1.696;2024-01-15T05:57:35;19.98;;;17.80;;
17173;SDS011;8702;48.130;-1.696;2024-01-15T06:00:03;20.58;;;18.42;;
17173;SDS011;8702;48.130;-1.696;2024-01-15T06:02:30;20.45;;;18.27;;
17173;SDS011;8702;48.130;-1.696;2024-01-15T06:04:57;21.05;;;18.85;;
17173;SDS011;8702;48.130;-1.696;2024-01-15T06:07:25;20.40;;;18.20;;
17173;SDS011;8702;48.130;-1.696;2024-01-15T06:09:52;19.92;;;17.83;;
17173;SDS011;8702;48.130;-1.696;2024-01-15T06:12:19;22.63;;;19.70;;
17173;SDS011;8702;48.130;-1.696;2024-01-15T06:14:45;21.08;;;18.85;;
17173;SDS011;8702;48.130;-1.696;2024-01-15T06:17:12;20.90;;;18.17;;
17173;SDS011;8702;48.130;-1.696;2024-01-15T06:19:39;20.40;;;18.20;;
17173;SDS011;8702;48.130;-1.696;2024-01-15T06:22:06;20.65;;;18.45;;
17173;SDS011;8702;48.130;-1.696;2024-01-15T06:24:34;20.77;;;18.55;;
17173;SDS011;8702;48.130;-1.696;2024-01-15T06:27:01;21.30;;;18.83;;
17173;SDS011;8702;48.130;-1.696;2024-01-15T06:29:28;22.42;;;20.02;;
17173;SDS011;8702;48.130;-1.696;2024-01-15T06:31:54;22.55;;;20.08;;
17173;SDS011;8702;48.130;-1.696;2024-01-15T06:34:21;22.30;;;19.90;;
17173;SDS011;8702;48.130;-1.696;2024-01-15T06:36:48;22.30;;;19.43;;
17173;SDS011;8702;48.130;-1.696;2024-01-15T06:39:15;22.45;;;19.38;;
17173;SDS011;8702;48.130;-1.696;2024-01-15T06:41:43;22.92;;;19.73;;
17173;SDS011;8702;48.130;-1.696;2024-01-15T06:44:10;21.95;;;19.58;;
17173;SDS011;8702;48.130;-1.696;2024-01-15T06:46:37;21.38;;;19.08;;
17173;SDS011;8702;48.130;-1.696;2024-01-15T06:49:08;21.17;;;18.85;;
17173;SDS011;8702;48.130;-1.696;2024-01-15T06:51:36;20.58;;;18.38;;
17173;SDS011;8702;48.130;-1.696;2024-01-15T06:54:03;21.63;;;18.08;;
17173;SDS011;8702;48.130;-1.696;2024-01-15T06:56:30;21.27;;;18.55;;
17173;SDS011;8702;48.130;-1.696;2024-01-15T06:58:59;22.07;;;18.57;;
17173;SDS011;8702;48.130;-1.696;2024-01-15T07:01:26;21.95;;;19.13;;
17173;SDS011;8702;48.130;-1.696;2024-01-15T07:03:52;20.00;;;17.80;;
17173;SDS011;8702;48.130;-1.696;2024-01-15T07:06:19;21.58;;;18.48;;
17173;SDS011;8702;48.130;-1.696;2024-01-15T07:08:46;21.15;;;18.95;;
17173;SDS011;8702;48.130;-1.696;2024-01-15T07:11:13;21.30;;;18.88;;
17173;SDS011;8702;48.130;-1.696;2024-01-15T07:13:40;20.20;;;17.98;;
17173;SDS011;8702;48.130;-1.696;2024-01-15T07:16:08;20.90;;;18.53;;
17173;SDS011;8702;48.130;-1.696;2024-01-15T07:18:35;19.98;;;17.88;;
17173;SDS011;8702;48.130;-1.696;2024-01-15T07:21:01;21.33;;;18.17;;
17173;SDS011;8702;48.130;-1.696;2024-01-15T07:23:30;20.23;;;18.13;;
17173;SDS011;8702;48.130;-1.696;2024-01-15T07:25:57;19.75;;;17.60;;
17173;SDS011;8702;48.130;-1.696;2024-01-15T07:28:24;19.05;;;17.15;;
17173;SDS011;8702;48.130;-1.696;2024-01-15T07:30:51;20.45;;;18.25;;
17173;SDS011;8702;48.130;-1.696;2024-01-15T07:33:19;19.45;;;17.25;;
17173;SDS011;8702;48.130;-1.696;2024-01-15T07:35:46;19.35;;;17.27;;
17173;SDS011;8702;48.130;-1.696;2024-01-15T07:38:13;19.20;;;17.20;;
17173;SDS011;8702;48.130;-1.696;2024-01-15T07:40:39;18.80;;;16.80;;
17173;SDS011;8702;48.130;-1.696;2024-01-15T07:43:06;20.50;;;18.08;;
17173;SDS011;8702;48.130;-1.696;2024-01-15T07:45:33;20.13;;;17.83;;
17173;SDS011;8702;48.130;-1.696;2024-01-15T07:48:00;19.50;;;17.35;;
17173;SDS011;8702;48.130;-1.696;2024-01-15T07:50:29;19.20;;;17.10;;
17173;SDS011;8702;48.130;-1.696;2024-01-15T07:52:56;18.08;;;16.17;;
17173;SDS011;8702;48.130;-1.696;2024-01-15T07:55:23;20.15;;;17.05;;
17173;SDS011;8702;48.130;-1.696;2024-01-15T07:57:50;20.35;;;17.02;;
17173;SDS011;8702;48.130;-1.696;2024-01-15T08:00:18;19.67;;;17.20;;
17173;SDS011;8702;48.130;-1.696;2024-01-15T08:02:46;20.10;;;17.15;;
17173;SDS011;8702;48.130;-1.696;2024-01-15T08:05:12;19.52;;;17.25;;
17173;SDS011;8702;48.130;-1.696;2024-01-15T08:07:41;19.10;;;16.65;;
17173;SDS011;8702;48.130;-1.696;2024-01-15T08:10:08;20.45;;;16.60;;
17173;SDS011;8702;48.130;-1.696;2024-01-15T08:12:35;17.95;;;16.05;;
17173;SDS011;8702;48.130;-1.696;2024-01-15T08:15:02;18.38;;;16.15;;
17173;SDS011;8702;48.130;-1.696;2024-01-15T08:17:30;18.10;;;16.20;;
17173;SDS011;8702;48.130;-1.696;2024-01-15T08:19:57;19.33;;;16.60;;
17173;SDS011;8702;48.130;-1.696;2024-01-15T08:22:24;18.80;;;16.90;;
17173;SDS011;8702;48.130;-1.696;2024-01-15T08:24:52;20.00;;;17.30;;
17173;SDS011;8702;48.130;-1.696;2024-01-15T08:27:20;19.38;;;17.27;;
17173;SDS011;8702;48.130;-1.696;2024-01-15T08:29:47;19.23;;;17.23;;
17173;SDS011;8702;48.130;-1.696;2024-01-15T08:32:14;18.92;;;16.88;;
17173;SDS011;8702;48.130;-1.696;2024-01-15T08:34:41;20.35;;;17.83;;
17173;SDS011;8702;48.130;-1.696;2024-01-15T08:37:08;19.80;;;17.40;;
17173;SDS011;8702;48.130;-1.696;2024-01-15T08:39:35;20.38;;;17.92;;
17173;SDS011;8702;48.130;-1.696;2024-01-15T08:42:05;22.10;;;18.52;;
17173;SDS011;8702;48.130;-1.696;2024-01-15T08:44:32;20.30;;;17.70;;
17173;SDS011;8702;48.130;-1.696;2024-01-15T08:46:59;21.27;;;17.30;;
17173;SDS011;8702;48.130;-1.696;2024-01-15T08:49:26;20.30;;;17.80;;
17173;SDS011;8702;48.130;-1.696;2024-01-15T08:51:52;19.90;;;17.52;;
17173;SDS011;8702;48.130;-1.696;2024-01-15T08:54:19;20.88;;;18.23;;
17173;SDS011;8702;48.130;-1.696;2024-01-15T08:56:46;22.73;;;18.88;;
17173;SDS011;8702;48.130;-1.696;2024-01-15T08:59:14;21.90;;;18.52;;
17173;SDS011;8702;48.130;-1.696;2024-01-15T09:01:41;23.77;;;19.50;;
17173;SDS011;8702;48.130;-1.696;2024-01-15T09:04:08;25.17;;;19.60;;
17173;SDS011;8702;48.130;-1.696;2024-01-15T09:06:34;25.67;;;20.42;;
17173;SDS011;8702;48.130;-1.696;2024-01-15T09:09:01;26.40;;;21.00;;
17173;SDS011;8702;48.130;-1.696;2024-01-15T09:11:29;26.15;;;20.52;;
17173;SDS011;8702;48.130;-1.696;2024-01-15T09:13:57;25.13;;;20.87;;
17173;SDS011;8702;48.130;-1.696;2024-01-15T09:16:25;27.58;;;22.02;;
17173;SDS011;8702;48.130;-1.696;2024-01-15T09:18:52;27.05;;;21.98;;
17173;SDS011;8702;48.130;-1.696;2024-01-15T09:21:19;28.73;;;22.35;;
17173;SDS011;8702;48.130;-1.696;2024-01-15T09:23:46;26.50;;;21.67;;
17173;SDS011;8702;48.130;-1.696;2024-01-15T09:26:13;26.75;;;22.80;;
17173;SDS011;8702;48.130;-1.696;2024-01-15T09:28:40;29.27;;;21.83;;
17173;SDS011;8702;48.130;-1.696;2024-01-15T09:31:07;26.50;;;21.97;;
17173;SDS011;8702;48.130;-1.696;2024-01-15T09:33:35;24.45;;;21.13;;
17173;SDS011;8702;48.130;-1.696;2024-01-15T09:36:02;28.30;;;22.52;;
17173;SDS011;8702;48.130;-1.696;2024-01-15T09:38:30;25.60;;;21.60;;
17173;SDS011;8702;48.130;-1.696;2024-01-15T09:40:57;27.50;;;22.52;;
17173;SDS011;8702;48.130;-1.696;2024-01-15T09:43:24;26.73;;;20.80;;
17173;SDS011;8702;48.130;-1.696;2024-01-15T09:45:51;23.67;;;20.50;;
17173;SDS011;8702;48.130;-1.696;2024-01-15T09:48:18;23.05;;;19.23;;
17173;SDS011;8702;48.130;-1.696;2024-01-15T09:50:47;23.37;;;19.27;;
17173;SDS011;8702;48.130;-1.696;2024-01-15T09:53:14;21.40;;;17.20;;
17173;SDS011;8702;48.130;-1.696;2024-01-15T09:55:41;22.33;;;18.58;;
17173;SDS011;8702;48.130;-1.696;2024-01-15T09:58:08;23.80;;;18.10;;
17173;SDS011;8702;48.130;-1.696;2024-01-15T10:00:37;19.90;;;15.90;;
17173;SDS011;8702;48.130;-1.696;2024-01-15T10:03:06;19.98;;;16.35;;
17173;SDS011;8702;48.130;-1.696;2024-01-15T10:05:35;18.60;;;14.98;;
17173;SDS011;8702;48.130;-1.696;2024-01-15T10:08:03;18.70;;;14.85;;
17173;SDS011;8702;48.130;-1.696;2024-01-15T10:10:31;16.83;;;14.13;;
17173;SDS011;8702;48.130;-1.696;2024-01-15T10:12:58;18.00;;;14.60;;
17173;SDS011;8702;48.130;-1.696;2024-01-15T10:15:25;18.27;;;15.15;;
17173;SDS011;8702;48.130;-1.696;2024-01-15T10:17:52;19.05;;;14.95;;
17173;SDS011;8702;48.130;-1.696;2024-01-15T10:20:19;20.13;;;14.88;;
17173;SDS011;8702;48.130;-1.696;2024-01-15T10:22:48;19.23;;;15.88;;
17173;SDS011;8702;48.130;-1.696;2024-01-15T10:25:17;18.42;;;15.00;;
17173;SDS011;8702;48.130;-1.696;2024-01-15T10:27:52;18.42;;;14.23;;
17173;SDS011;8702;48.130;-1.696;2024-01-15T10:30:26;18.98;;;13.38;;
17173;SDS011;8702;48.130;-1.696;2024-01-15T10:32:57;14.52;;;11.77;;
17173;SDS011;8702;48.130;-1.696;2024-01-15T10:35:26;14.15;;;11.02;;
17173;SDS011;8702;48.130;-1.696;2024-01-15T10:37:54;15.25;;;11.52;;
17173;SDS011;8702;48.130;-1.696;2024-01-15T10:40:22;13.90;;;11.90;;
17173;SDS011;8702;48.130;-1.696;2024-01-15T10:42:49;16.30;;;11.57;;
17173;SDS011;8702;48.130;-1.696;2024-01-15T10:45:16;14.10;;;11.13;;
17173;SDS011;8702;48.130;-1.696;2024-01-15T10:47:43;15.35;;;10.40;;
17173;SDS011;8702;48.130;-1.696;2024-01-15T10:50:11;13.98;;;10.88;;
17173;SDS011;8702;48.130;-1.696;2024-01-15T10:52:38;12.68;;;9.18;;
17173;SDS011;8702;48.130;-1.696;2024-01-15T10:55:06;12.70;;;9.40;;
17173;SDS011;8702;48.130;-1.696;2024-01-15T10:57:36;11.98;;;9.18;;
17173;SDS011;8702;48.130;-1.696;2024-01-15T11:00:04;11.77;;;8.40;;
17173;SDS011;8702;48.130;-1.696;2024-01-15T11:02:31;11.82;;;8.80;;
17173;SDS011;8702;48.130;-1.696;2024-01-15T11:05:00;12.55;;;9.98;;
17173;SDS011;8702;48.130;-1.696;2024-01-15T11:07:28;14.40;;;9.20;;
17173;SDS011;8702;48.130;-1.696;2024-01-15T11:09:57;13.52;;;9.25;;
17173;SDS011;8702;48.130;-1.696;2024-01-15T11:12:24;11.77;;;9.20;;
17173;SDS011;8702;48.130;-1.696;2024-01-15T11:15:00;13.32;;;9.73;;
17173;SDS011;8702;48.130;-1.696;2024-01-15T11:17:30;10.00;;;7.30;;
17173;SDS011;8702;48.130;-1.696;2024-01-15T11:20:26;10.90;;;6.80;;
17173;SDS011;8702;48.130;-1.696;2024-01-15T11:22:52;6.63;;;5.20;;
17173;SDS011;8702;48.130;-1.696;2024-01-15T11:25:22;10.20;;;5.35;;
17173;SDS011;8702;48.130;-1.696;2024-01-15T11:27:50;9.23;;;5.97;;
17173;SDS011;8702;48.130;-1.696;2024-01-15T11:30:19;9.75;;;6.13;;
17173;SDS011;8702;48.130;-1.696;2024-01-15T11:32:50;10.60;;;7.03;;
17173;SDS011;8702;48.130;-1.696;2024-01-15T11:35:17;10.95;;;8.25;;
17173;SDS011;8702;48.130;-1.696;2024-01-15T11:37:56;10.10;;;7.72;;
17173;SDS011;8702;48.130;-1.696;2024-01-15T11:40:35;9.20;;;6.90;;
17173;SDS011;8702;48.130;-1.696;2024-01-15T11:43:04;11.02;;;8.02;;
17173;SDS011;8702;48.130;-1.696;2024-01-15T11:45:33;11.57;;;7.87;;
17173;SDS011;8702;48.130;-1.696;2024-01-15T11:48:09;12.73;;;8.10;;
17173;SDS011;8702;48.130;-1.696;2024-01-15T11:50:39;10.33;;;7.27;;
17173;SDS011;8702;48.130;-1.696;2024-01-15T11:53:09;9.63;;;6.20;;
17173;SDS011;8702;48.130;-1.696;2024-01-15T11:55:43;10.32;;;6.43;;
17173;SDS011;8702;48.130;-1.696;2024-01-15T11:58:11;10.55;;;7.28;;
17173;SDS011;8702;48.130;-1.696;2024-01-15T12:00:44;10.35;;;7.75;;
17173;SDS011;8702;48.130;-1.696;2024-01-15T12:03:14;11.20;;;7.13;;
17173;SDS011;8702;48.130;-1.696;2024-01-15T12:05:41;9.27;;;6.68;;
17173;SDS011;8702;48.130;-1.696;2024-01-15T12:08:08;9.95;;;7.13;;
17173;SDS011;8702;48.130;-1.696;2024-01-15T12:10:36;9.77;;;7.40;;
17173;SDS011;8702;48.130;-1.696;2024-01-15T12:13:05;11.35;;;7.80;;
17173;SDS011;8702;48.130;-1.696;2024-01-15T12:15:37;9.82;;;7.38;;
17173;SDS011;8702;48.130;-1.696;2024-01-15T12:18:07;9.82;;;7.57;;
17173;SDS011;8702;48.130;-1.696;2024-01-15T12:20:35;9.40;;;7.00;;
17173;SDS011;8702;48.130;-1.696;2024-01-15T12:23:02;10.15;;;7.20;;
17173;SDS011;8702;48.130;-1.696;2024-01-15T12:25:31;9.18;;;7.40;;
17173;SDS011;8702;48.130;-1.696;2024-01-15T12:27:59;13.25;;;8.23;;
17173;SDS011;8702;48.130;-1.696;2024-01-15T12:30:26;9.70;;;7.75;;
17173;SDS011;8702;48.130;-1.696;2024-01-15T12:32:54;11.18;;;8.68;;
17173;SDS011;8702;48.130;-1.696;2024-01-15T12:35:23;13.27;;;9.25;;
17173;SDS011;8702;48.130;-1.696;2024-01-15T12:37:51;12.70;;;8.35;;
17173;SDS011;8702;48.130;-1.696;2024-01-15T12:40:18;10.65;;;7.00;;
17173;SDS011;8702;48.130;-1.696;2024-01-15T12:42:45;9.00;;;5.45;;
17173;SDS011;8702;48.130;-1.696;2024-01-15T12:45:12;9.32;;;4.43;;
17173;SDS011;8702;48.130;-1.696;2024-01-15T12:47:40;7.72;;;4.20;;
17173;SDS011;8702;48.130;-1.696;2024-01-15T12:50:08;6.65;;;4.35;;
17173;SDS011;8702;48.130;-1.696;2024-01-15T12:52:37;7.45;;;4.28;;
17173;SDS011;8702;48.130;-1.696;2024-01-15T12:55:06;6.32;;;3.90;;
17173;SDS011;8702;48.130;-1.696;2024-01-15T12:57:34;6.20;;;3.73;;
17173;SDS011;8702;48.130;-1.696;2024-01-15T13:00:01;7.13;;;3.83;;
17173;SDS011;8702;48.130;-1.696;2024-01-15T13:02:31;5.80;;;3.47;;
17173;SDS011;8702;48.130;-1.696;2024-01-15T13:04:58;5.15;;;3.00;;
17173;SDS011;8702;48.130;-1.696;2024-01-15T13:07:27;5.25;;;3.17;;
17173;SDS011;8702;48.130;-1.696;2024-01-15T13:09:55;8.98;;;3.10;;
17173;SDS011;8702;48.130;-1.696;2024-01-15T13:12:22;5.13;;;2.53;;
17173;SDS011;8702;48.130;-1.696;2024-01-15T13:14:48;5.55;;;2.88;;
17173;SDS011;8702;48.130;-1.696;2024-01-15T13:17:15;4.75;;;2.92;;
17173;SDS011;8702;48.130;-1.696;2024-01-15T13:19:42;6.10;;;2.97;;
17173;SDS011;8702;48.130;-1.696;2024-01-15T13:22:09;5.68;;;2.90;;
17173;SDS011;8702;48.130;-1.696;2024-01-15T13:24:38;6.30;;;3.05;;
17173;SDS011;8702;48.130;-1.696;2024-01-15T13:27:07;5.60;;;3.17;;
17173;SDS011;8702;48.130;-1.696;2024-01-15T13:29:33;7.57;;;3.30;;
17173;SDS011;8702;48.130;-1.696;2024-01-15T13:32:00;6.20;;;3.38;;
17173;SDS011;8702;48.130;-1.696;2024-01-15T13:34:28;6.78;;;3.20;;
17173;SDS011;8702;48.130;-1.696;2024-01-15T13:36:55;5.38;;;3.50;;
17173;SDS011;8702;48.130;-1.696;2024-01-15T13:39:22;5.97;;;3.67;;
17173;SDS011;8702;48.130;-1.696;2024-01-15T13:41:49;4.72;;;3.33;;
17173;SDS011;8702;48.130;-1.696;2024-01-15T13:44:18;5.93;;;3.70;;
17173;SDS011;8702;48.130;-1.696;2024-01-15T13:46:45;5.13;;;3.25;;
17173;SDS011;8702;48.130;-1.696;2024-01-15T13:49:11;4.97;;;2.95;;
17173;SDS011;8702;48.130;-1.696;2024-01-15T13:51:39;4.32;;;2.80;;
17173;SDS011;8702;48.130;-1.696;2024-01-15T13:54:06;5.32;;;3.15;;
17173;SDS011;8702;48.130;-1.696;2024-01-15T13:56:33;4.70;;;3.22;;
17173;SDS011;8702;48.130;-1.696;2024-01-15T13:59:00;3.22;;;2.70;;
17173;SDS011;8702;48.130;-1.696;2024-01-15T14:01:30;5.00;;;2.70;;
17173;SDS011;8702;48.130;-1.696;2024-01-15T14:03:58;6.50;;;3.00;;
17173;SDS011;8702;48.130;-1.696;2024-01-15T14:06:25;5.63;;;3.03;;
17173;SDS011;8702;48.130;-1.696;2024-01-15T14:08:51;4.10;;;2.92;;
17173;SDS011;8702;48.130;-1.696;2024-01-15T14:11:18;5.72;;;2.92;;
17173;SDS011;8702;48.130;-1.696;2024-01-15T14:13:45;5.23;;;2.50;;
17173;SDS011;8702;48.130;-1.696;2024-01-15T14:16:12;3.80;;;2.53;;
17173;SDS011;8702;48.130;-1.696;2024-01-15T14:18:40;5.07;;;2.95;;
17173;SDS011;8702;48.130;-1.696;2024-01-15T14:21:07;4.82;;;2.97;;
17173;SDS011;8702;48.130;-1.696;2024-01-15T14:23:34;5.10;;;2.70;;
17173;SDS011;8702;48.130;-1.696;2024-01-15T14:26:01;3.50;;;2.17;;
17173;SDS011;8702;48.130;-1.696;2024-01-15T14:28:29;5.87;;;2.33;;